createdAt,value
2023-09-19T12:44:01.536Z,24.37
2023-09-19T12:46:29.200Z,24.37
2023-09-19T12:49:18.343Z,23.90
2023-09-19T12:51:50.634Z,23.79
2023-09-19T12:54:18.124Z,23.97
2023-09-19T12:56:48.805Z,24.13
2023-09-19T12:59:16.916Z,24.51
2023-09-19T13:01:50.466Z,24.65
2023-09-19T13:04:26.792Z,24.24
2023-09-19T13:06:56.019Z,23.75
2023-09-19T13:09:35.256Z,23.47
2023-09-19T13:12:03.952Z,23.37
2023-09-19T13:14:41.548Z,23.56
2023-09-19T13:17:20.418Z,23.61
2023-09-19T13:19:56.523Z,23.71
2023-09-19T13:22:50.698Z,23.45
2023-09-19T13:25:20.291Z,23.18
2023-09-19T13:27:56.758Z,23.19
2023-09-19T13:30:26.543Z,23.47
2023-09-19T13:33:05.743Z,23.46
2023-09-19T13:35:34.897Z,23.31
2023-09-19T13:38:04.266Z,23.21
2023-09-19T13:40:36.132Z,23.08
2023-09-19T13:43:04.561Z,23.22
2023-09-19T13:45:31.914Z,23.16
2023-09-19T13:48:00.588Z,23.31
2023-09-19T13:50:30.376Z,23.42
2023-09-19T13:53:01.803Z,23.64
2023-09-19T13:55:29.411Z,23.86
2023-09-19T13:57:58.646Z,23.64
2023-09-19T14:00:26.383Z,23.32
2023-09-19T14:02:54.031Z,23.27
2023-09-19T14:05:21.934Z,23.08
2023-09-19T14:07:51.580Z,23.04
2023-09-19T14:10:19.006Z,22.81
2023-09-19T14:12:46.774Z,22.69
2023-09-19T14:15:15.089Z,22.89
2023-09-19T14:17:49.334Z,23.03
2023-09-19T14:20:16.733Z,23.09
2023-09-19T14:22:44.397Z,23.00
2023-09-19T14:25:11.582Z,23.00
2023-09-19T14:27:39.861Z,22.93
2023-09-19T14:30:08.506Z,23.02
2023-09-19T14:32:37.053Z,23.16
2023-09-19T14:35:04.624Z,23.18
2023-09-19T14:37:32.608Z,23.20
2023-09-19T14:40:00.235Z,23.33
2023-09-19T14:42:27.301Z,23.35
2023-09-19T14:44:56.590Z,23.29
2023-09-19T14:47:24.935Z,23.16
2023-09-19T14:49:52.566Z,22.93
2023-09-19T14:52:20.530Z,22.91
2023-09-19T14:54:48.143Z,22.78
2023-09-19T14:57:15.905Z,22.76
2023-09-19T14:59:43.756Z,22.66
2023-09-19T15:02:11.063Z,22.52
2023-09-19T15:04:42.246Z,22.42
2023-09-19T15:07:10.523Z,22.21
2023-09-19T15:09:37.621Z,21.94
2023-09-19T15:12:07.263Z,21.81
2023-09-19T15:14:34.588Z,21.83
2023-09-19T15:17:01.714Z,21.72
2023-09-19T15:19:28.790Z,21.85
2023-09-19T15:21:56.852Z,21.76
2023-09-19T15:24:23.986Z,21.89
2023-09-19T15:26:52.165Z,21.91
2023-09-19T15:29:22.276Z,21.95
2023-09-19T15:31:50.989Z,21.91
2023-09-19T15:34:18.625Z,21.85
2023-09-19T15:36:47.037Z,21.80
2023-09-19T15:39:16.577Z,21.70
2023-09-19T15:41:47.184Z,21.63
2023-09-19T15:44:16.869Z,21.64
2023-09-19T15:46:45.725Z,21.61
2023-09-19T15:49:14.316Z,21.56
2023-09-19T15:51:44.226Z,21.62
2023-09-19T15:54:16.491Z,21.60
2023-09-19T15:56:45.974Z,21.64
2023-09-19T15:59:14.378Z,21.54
2023-09-19T16:01:45.900Z,21.47
2023-09-19T16:04:13.984Z,21.33
2023-09-19T16:06:43.391Z,21.16
2023-09-19T16:09:11.427Z,21.08
2023-09-19T16:11:39.248Z,21.07
2023-09-19T16:14:07.879Z,20.97
2023-09-19T16:16:37.496Z,20.86
2023-09-19T16:19:10.971Z,20.78
2023-09-19T16:21:44.916Z,20.68
2023-09-19T16:24:12.396Z,20.63
2023-09-19T16:26:41.010Z,20.52
2023-09-19T16:29:14.882Z,20.42
2023-09-19T16:31:42.795Z,20.30
2023-09-19T16:34:10.665Z,20.21
2023-09-19T16:36:39.276Z,20.12
2023-09-19T16:39:08.806Z,20.00
2023-09-19T16:41:36.009Z,19.87
2023-09-19T16:44:03.308Z,19.80
2023-09-19T16:46:30.978Z,19.73
2023-09-19T16:49:03.580Z,19.69
2023-09-19T16:51:33.497Z,19.58
2023-09-19T16:54:00.902Z,19.45
2023-09-19T16:56:29.628Z,19.31
2023-09-19T16:58:57.104Z,19.20
2023-09-19T17:01:26.230Z,19.14
2023-09-19T17:03:54.640Z,19.06
2023-09-19T17:06:25.687Z,19.00
2023-09-19T17:08:52.800Z,18.93
2023-09-19T17:11:21.745Z,18.83
2023-09-19T17:13:52.754Z,18.75
2023-09-19T17:16:24.448Z,18.68
2023-09-19T17:18:57.405Z,18.62
2023-09-19T17:21:27.126Z,18.52
2023-09-19T17:23:56.450Z,18.46
2023-09-19T17:26:26.270Z,18.37
2023-09-19T17:28:54.786Z,18.31
2023-09-19T17:31:25.932Z,18.22
2023-09-19T17:33:55.263Z,18.16
2023-09-19T17:36:26.402Z,18.11
2023-09-19T17:38:56.576Z,18.05
2023-09-19T17:41:26.820Z,17.95
2023-09-19T17:43:58.093Z,17.86
2023-09-19T17:46:29.315Z,17.76
2023-09-19T17:48:59.087Z,17.68
2023-09-19T17:51:28.334Z,17.58
2023-09-19T17:54:02.185Z,17.49
2023-09-19T17:56:30.071Z,17.41
2023-09-19T17:58:58.246Z,17.34
2023-09-19T18:01:29.728Z,17.30
2023-09-19T18:04:03.059Z,17.28
2023-09-19T18:06:35.054Z,17.22
2023-09-19T18:09:08.693Z,17.15
2023-09-19T18:11:37.101Z,17.15
2023-09-19T18:14:04.798Z,17.08
2023-09-19T18:16:33.743Z,17.05
2023-09-19T18:19:03.020Z,17.01
2023-09-19T18:21:33.357Z,16.97
2023-09-19T18:24:15.219Z,16.90
2023-09-19T18:26:45.005Z,16.84
2023-09-19T18:29:12.271Z,16.81
2023-09-19T18:31:41.267Z,16.80
2023-09-19T18:34:11.279Z,16.77
2023-09-19T18:36:39.025Z,16.75
2023-09-19T18:39:09.091Z,16.73
2023-09-19T18:41:42.423Z,16.71
2023-09-19T18:44:11.821Z,16.65
2023-09-19T18:46:50.090Z,16.61
2023-09-19T18:49:17.377Z,16.57
2023-09-19T18:51:45.769Z,16.59
2023-09-19T18:54:14.335Z,16.62
2023-09-19T18:56:45.294Z,16.67
2023-09-19T18:59:14.833Z,16.67
2023-09-19T19:01:44.929Z,16.65
2023-09-19T19:04:13.880Z,16.63
2023-09-19T19:06:44.303Z,16.58
2023-09-19T19:09:11.396Z,16.54
2023-09-19T19:11:39.742Z,16.54
2023-09-19T19:14:08.498Z,16.50
2023-09-19T19:16:38.521Z,16.52
2023-09-19T19:19:09.506Z,16.48
2023-09-19T19:21:38.302Z,16.39
2023-09-19T19:24:06.263Z,16.34
2023-09-19T19:26:34.207Z,16.29
2023-09-19T19:29:01.262Z,16.31
2023-09-19T19:31:29.459Z,16.21
2023-09-19T19:33:58.717Z,16.11
2023-09-19T19:36:27.602Z,16.05
2023-09-19T19:38:56.520Z,16.00
2023-09-19T19:41:24.176Z,15.95
2023-09-19T19:43:52.746Z,15.89
2023-09-19T19:46:20.288Z,15.85
2023-09-19T19:48:53.009Z,15.83
2023-09-19T19:51:20.745Z,15.81
2023-09-19T19:53:48.514Z,15.83
2023-09-19T19:56:16.177Z,15.89
2023-09-19T19:58:43.698Z,15.93
2023-09-19T20:01:11.704Z,15.93
2023-09-19T20:03:39.523Z,15.96
2023-09-19T20:06:07.195Z,16.00
2023-09-19T20:08:34.710Z,16.00
2023-09-19T20:11:07.671Z,16.02
2023-09-19T20:13:36.136Z,16.06
2023-09-19T20:16:05.281Z,16.07
2023-09-19T20:18:34.080Z,16.08
2023-09-19T20:21:11.182Z,16.10
2023-09-19T20:23:40.897Z,16.14
2023-09-19T20:26:08.203Z,16.23
2023-09-19T20:28:35.962Z,16.25
2023-09-19T20:31:12.639Z,16.25
2023-09-19T20:33:40.118Z,16.24
2023-09-19T20:36:11.140Z,16.16
2023-09-19T20:38:39.618Z,16.10
2023-09-19T20:41:11.322Z,16.03
2023-09-19T20:43:42.043Z,16.00
2023-09-19T20:46:12.423Z,16.04
2023-09-19T20:48:44.377Z,16.13
2023-09-19T20:51:14.583Z,16.27
2023-09-19T20:53:47.599Z,16.32
2023-09-19T20:56:16.117Z,16.31
2023-09-19T20:58:45.690Z,16.37
2023-09-19T21:01:13.919Z,16.48
2023-09-19T21:03:41.231Z,16.37
2023-09-19T21:06:14.719Z,16.30
2023-09-19T21:08:45.924Z,16.18
2023-09-19T21:11:16.651Z,16.06
2023-09-19T21:13:46.609Z,15.89
2023-09-19T21:16:16.988Z,15.79
2023-09-19T21:18:46.829Z,15.66
2023-09-19T21:21:15.180Z,15.59
2023-09-19T21:23:45.235Z,15.49
2023-09-19T21:26:13.974Z,15.47
2023-09-19T21:28:42.345Z,15.43
2023-09-19T21:31:10.220Z,15.34
2023-09-19T21:33:39.564Z,15.18
2023-09-19T21:36:15.425Z,15.11
2023-09-19T21:38:42.699Z,15.00
2023-09-19T21:41:12.863Z,14.97
2023-09-19T21:43:41.268Z,14.93
2023-09-19T21:46:09.610Z,14.87
2023-09-19T21:48:37.679Z,14.82
2023-09-19T21:51:07.954Z,14.76
2023-09-19T21:53:36.104Z,14.70
2023-09-19T21:56:06.178Z,14.66
2023-09-19T21:58:36.414Z,14.59
2023-09-19T22:01:07.557Z,14.61
2023-09-19T22:03:39.996Z,14.60
2023-09-19T22:06:17.967Z,14.60
2023-09-19T22:08:50.865Z,14.53
2023-09-19T22:11:22.144Z,14.44
2023-09-19T22:13:52.767Z,14.41
2023-09-19T22:16:21.457Z,14.31
2023-09-19T22:18:52.071Z,14.32
2023-09-19T22:21:21.060Z,14.26
2023-09-19T22:23:48.421Z,14.18
2023-09-19T22:26:20.223Z,14.31
2023-09-19T22:28:51.607Z,14.27
2023-09-19T22:31:24.349Z,14.23
2023-09-19T22:33:56.446Z,14.24
2023-09-19T22:36:32.013Z,14.24
2023-09-19T22:39:01.552Z,14.36
2023-09-19T22:41:29.712Z,14.31
2023-09-19T22:43:57.952Z,14.26
2023-09-19T22:46:29.163Z,14.19
2023-09-19T22:48:57.406Z,14.12
2023-09-19T22:51:37.275Z,14.17
2023-09-19T22:54:12.597Z,14.22
2023-09-19T22:56:41.178Z,14.19
2023-09-19T22:59:09.215Z,14.18
2023-09-19T23:01:37.516Z,14.14
2023-09-19T23:04:15.480Z,14.14
2023-09-19T23:06:49.648Z,14.11
2023-09-19T23:09:26.069Z,14.10
2023-09-19T23:12:07.423Z,14.03
2023-09-19T23:14:39.855Z,14.05
2023-09-19T23:17:15.630Z,14.08
2023-09-19T23:19:49.195Z,14.08
2023-09-19T23:22:19.653Z,14.05
2023-09-19T23:24:51.088Z,14.03
2023-09-19T23:27:26.051Z,14.02
2023-09-19T23:29:56.246Z,13.97
2023-09-19T23:32:23.728Z,14.01
2023-09-19T23:34:51.251Z,14.03
2023-09-19T23:37:22.350Z,14.10
2023-09-19T23:39:52.143Z,14.13
2023-09-19T23:42:20.237Z,14.08
2023-09-19T23:44:52.086Z,14.07
2023-09-19T23:47:19.844Z,14.02
2023-09-19T23:49:50.597Z,14.08
2023-09-19T23:52:18.919Z,14.06
2023-09-19T23:54:51.353Z,14.10
2023-09-19T23:57:18.871Z,14.10
2023-09-19T23:59:46.471Z,14.06
